African Highway — 3EOD8 — position and weather

sailwx.info

Track history (hours):
 
Tides and Currents Weather Stations Pressure Air Temp Water Temp Dewpoint Dewpoint Depression Visibility Wind Speed Wind Dir Waves Ship Positions

African Highway

Last reported at 2016-May-26 12:34 UTC. Time now 2016-May-26 12:38 UTC.
Position N 53°20' E 007°10'.

Length 154.5 m; beam 27.6 m.

Type: Cargo ship. MMSI: 353633000.

Date/timePositionNaut miles runAvg speedWind from/ knotsBaromVisibWave heightAir tempDewpointWater temp
2016-May-26 12:34N 53°20' E 007°10'0 0.0
2016-May-26 11:34N 53°20' E 007°10'0 0.0
2016-May-26 10:33N 53°20' E 007°10'0 0.0
2016-May-26 09:34N 53°20' E 007°10'0 0.0
2016-May-26 08:34N 53°20' E 007°10'0 0.0
2016-May-26 07:34N 53°20' E 007°10'0 0.0
2016-May-26 06:33N 53°20' E 007°10'0 0.0
2016-May-26 05:34N 53°20' E 007°10'0 0.0
2016-May-26 04:34N 53°20' E 007°10'0 0.0
2016-May-26 03:31N 53°20' E 007°10'0 0.0
2016-May-26 02:33N 53°20' E 007°10'0 0.0
2016-May-26 01:34N 53°20' E 007°10'0 0.0
2016-May-26 00:34N 53°20' E 007°10'0 0.0
2016-May-25 23:34N 53°20' E 007°10'0 0.0
2016-May-25 22:33N 53°20' E 007°10'0 0.0
2016-May-25 21:33N 53°20' E 007°10'0 0.0
2016-May-25 20:31N 53°20' E 007°10'0 0.0
2016-May-25 19:33N 53°20' E 007°10'0 0.0
2016-May-25 18:34N 53°20' E 007°10'1 1.1
2016-May-25 17:33N 53°20' E 007°08'5 5.0
2016-May-25 16:33N 53°20' E 007°00'1111.3
2016-May-25 15:33N 53°29' E 006°50'1312.5
2016-May-25 14:33N 53°37' E 006°33'1211.7
2016-May-25 13:33N 53°38' E 006°13'1111.4
2016-May-25 12:34N 53°39' E 005°54'1515.5
2016-May-25 11:34N 53°35' E 005°29'1615.7
2016-May-25 10:34N 53°30' E 005°04'1715.3
2016-May-25 09:25N 53°20' E 004°40'1516.1
2016-May-25 08:30N 53°07' E 004°28'1516.4
2016-May-25 07:34N 52°53' E 004°16'1616.2
2016-May-25 06:33N 52°41' E 003°59'1615.7
2016-May-25 05:33N 52°29' E 003°40'7414.9
2016-May-25 00:33N 51°42' E 002°07'1413.7
2016-May-24 23:33N 51°35' E 001°49'1313.1
2016-May-24 22:33N 51°27' E 001°32'9 9.0
2016-May-24 21:33N 51°29' E 001°18'1313.4
2016-May-24 20:33N 51°29' E 000°56'254 5.7
2016-May-23 00:07N 53°20' E 007°11'0 0.0
2016-May-22 23:32N 53°20' E 007°11'5 5.2
2016-May-22 22:33N 53°19' E 007°02'1111.1
2016-May-22 21:33N 53°28' E 006°51'1212.1
2016-May-22 20:33N 53°36' E 006°35'1010.5
2016-May-22 19:33N 53°38' E 006°18'1110.8
2016-May-22 18:33N 53°37' E 005°60'1716.8
2016-May-22 17:34N 53°34' E 005°32'1716.7
2016-May-22 16:34N 53°29' E 005°05'1616.3
2016-May-22 15:33N 53°25' E 004°38'9215.3
2016-May-22 09:31N 53°33' E 002°04'1616.2
2016-May-22 08:33N 53°33' E 001°37'1716.5
2016-May-22 07:31N 53°34' E 001°09'1715.9
2016-May-22 06:27N 53°32' E 000°40'1416.0
2016-May-22 05:33N 53°32' E 000°16'10 9.7
2016-May-22 04:33N 53°35' E 000°01'3 2.7
2016-May-22 03:32N 53°35' W 000°04'0 0.0
2016-May-22 02:32N 53°35' W 000°04'0 0.0
2016-May-22 01:32N 53°35' W 000°04'0 0.0
2016-May-22 00:32N 53°35' W 000°04'0 0.0
2016-May-21 23:32N 53°35' W 000°04'0 0.0
2016-May-21 22:32N 53°35' W 000°04'0 0.0
2016-May-21 21:31N 53°35' W 000°04'0 0.0
2016-May-21 20:32N 53°35' W 000°04'0 0.0
2016-May-21 19:32N 53°35' W 000°04'0 0.0
2016-May-21 18:31N 53°35' W 000°04'0 0.0
2016-May-21 17:33N 53°35' W 000°04'4 3.8
2016-May-21 16:34N 53°35' E 000°02'10 9.5
2016-May-21 15:33N 53°33' E 000°18'10 9.2
2016-May-21 14:31N 53°34' E 000°34'4 3.6
2016-May-21 13:29N 53°33' E 000°40'3 2.4
2016-May-21 12:23N 53°31' E 000°40'2 2.4
2016-May-21 11:33N 53°29' E 000°38'4 4.2
2016-May-21 10:33N 53°33' E 000°40'2 1.4
2016-May-21 09:17N 53°32' E 000°39'3 2.7
2016-May-21 08:16N 53°29' E 000°36'1 1.1
2016-May-21 07:32N 53°29' E 000°37'12914.4
2016-May-20 22:33N 53°28' E 004°14'1514.6
2016-May-20 21:33N 53°29' E 004°38'1514.6
2016-May-20 20:33N 53°35' E 005°01'1413.7
2016-May-20 19:33N 53°39' E 005°23'1313.0
2016-May-20 18:33N 53°43' E 005°44'1313.3
2016-May-20 17:33N 53°46' E 006°06'10 9.9
2016-May-20 16:33N 53°40' E 006°20'1111.5
2016-May-20 15:33N 53°35' E 006°37'1616.0
2016-May-20 14:33N 53°24' E 006°57'10 9.6
2016-May-20 13:34N 53°20' E 007°11'0 0.5
2016-May-20 12:32N 53°21' E 007°12'0 0.0
2016-May-20 11:32N 53°21' E 007°12'0 0.0
2016-May-20 10:32N 53°21' E 007°12'0 0.0
2016-May-20 09:32N 53°21' E 007°12'0 0.0
2016-May-20 08:32N 53°21' E 007°12'0 0.0
2016-May-20 07:32N 53°21' E 007°12'0 0.0
2016-May-20 06:29N 53°21' E 007°12'0 0.0
2016-May-20 05:32N 53°21' E 007°12'0 0.0
2016-May-20 04:32N 53°21' E 007°12'0 0.0
2016-May-20 03:32N 53°21' E 007°12'0 0.0
2016-May-20 02:32N 53°21' E 007°12'0 0.0
2016-May-20 01:32N 53°21' E 007°12'0 0.0
2016-May-20 00:32N 53°21' E 007°12'0 0.0
2016-May-19 23:32N 53°21' E 007°12'0 0.0
2016-May-19 22:32N 53°21' E 007°12'0 0.0
2016-May-19 21:32N 53°21' E 007°12'0 0.0
2016-May-19 20:32N 53°21' E 007°12'0 0.0
2016-May-19 19:32N 53°21' E 007°12'0 0.0
2016-May-19 18:34N 53°21' E 007°12'0 0.5
2016-May-19 17:34N 53°20' E 007°11'6 6.1
2016-May-19 16:34N 53°19' E 007°01'1414.2
2016-May-19 15:34N 53°31' E 006°47'1414.3
2016-May-19 14:34N 53°37' E 006°25'1010.3
2016-May-19 13:33N 53°37' E 006°08'1515.4
2016-May-19 12:34N 53°35' E 005°42'1514.6
2016-May-19 11:34N 53°32' E 005°18'1514.5
2016-May-19 10:34N 53°27' E 004°55'1413.5
2016-May-19 09:31N 53°17' E 004°38'1414.6
2016-May-19 08:34N 53°05' E 004°27'1514.7
2016-May-19 07:34N 52°52' E 004°15'1514.6
2016-May-19 06:34N 52°41' E 003°59'1514.9
2016-May-19 05:31N 52°29' E 003°42'2215.6
2016-May-19 04:05N 52°14' E 003°15'4516.1
2016-May-19 01:15N 51°47' E 002°16'1217.1
2016-May-19 00:34N 51°40' E 001°60'1716.9
2016-May-18 23:34N 51°30' E 001°37'1111.3
2016-May-18 22:34N 51°29' E 001°19'1414.4
2016-May-18 21:34N 51°29' E 000°56'8 7.7
2016-May-18 20:33N 51°26' E 000°44'0 0.0
2016-May-18 19:33N 51°26' E 000°44'0 0.0
2016-May-18 18:33N 51°26' E 000°44'0 0.0
2016-May-18 16:24N 51°26' E 000°44'0 0.0
2016-May-18 15:30N 51°26' E 000°44'0 0.0
2016-May-18 14:12N 51°26' E 000°44'0 0.0
2016-May-18 13:18N 51°26' E 000°44'0 0.1
2016-May-18 12:33N 51°26' E 000°44'4 3.9
2016-May-18 11:33N 51°28' E 000°50'5 4.9
2016-May-18 10:33N 51°29' E 000°57'9 8.8
2016-May-18 09:33N 51°29' E 001°12'1111.3
2016-May-18 08:33N 51°25' E 001°28'1 0.6
2016-May-18 07:33N 51°25' E 001°28'0 0.0
2016-May-18 06:33N 51°25' E 001°28'0 0.0
2016-May-18 05:33N 51°25' E 001°28'0 0.0
2016-May-18 04:33N 51°25' E 001°28'0 0.0
2016-May-18 03:33N 51°25' E 001°28'0 0.0
2016-May-18 02:33N 51°25' E 001°28'0 0.0
2016-May-18 01:33N 51°25' E 001°28'0 0.0
2016-May-18 00:33N 51°25' E 001°28'0 0.0
2016-May-17 23:33N 51°25' E 001°28'0 0.0
2016-May-17 22:33N 51°25' E 001°28'0 0.0
2016-May-17 21:33N 51°25' E 001°28'0 0.1
2016-May-17 20:33N 51°25' E 001°28'0 0.0
2016-May-17 19:33N 51°25' E 001°28'0 0.0
2016-May-17 18:33N 51°25' E 001°28'0 0.0
2016-May-17 17:33N 51°25' E 001°28'0 0.1
2016-May-17 16:33N 51°25' E 001°28'0 0.0
2016-May-17 15:33N 51°25' E 001°28'0 0.1
2016-May-17 14:33N 51°25' E 001°28'0 0.0
2016-May-17 13:33N 51°25' E 001°28'0 0.0
2016-May-17 12:33N 51°25' E 001°28'0 0.0
2016-May-17 11:33N 51°25' E 001°28'0 0.0
2016-May-17 10:33N 51°25' E 001°28'6 6.3
2016-May-17 09:33N 51°29' E 001°36'1414.5
2016-May-17 08:34N 51°34' E 001°57'1515.0
2016-May-17 07:34N 51°42' E 002°17'1616.0
2016-May-17 06:33N 51°54' E 002°36'3616.1
2016-May-17 04:19N 52°22' E 003°12'4114.8
2016-May-17 01:34N 52°55' E 003°53'5714.2
2016-May-16 21:33N 53°34' E 005°02'1615.5
2016-May-16 20:34N 53°39' E 005°27'1515.2
2016-May-16 19:33N 53°43' E 005°52'1414.4
2016-May-16 18:34N 53°47' E 006°15'1111.4
2016-May-16 17:33N 53°37' E 006°23'1212.1
2016-May-16 16:33N 53°33' E 006°42'1212.2
2016-May-16 15:33N 53°24' E 006°57'8 8.2
2016-May-16 14:33N 53°20' E 007°09'2 1.9
2016-May-16 13:32N 53°21' E 007°12'  
Track history (hours):
 
Tides and Currents Weather Stations Pressure Air Temp Water Temp Dewpoint Dewpoint Depression Visibility Wind Speed Wind Dir Waves Ship Positions

African Highway

Last reported at 2016-May-26 12:34 UTC. Time now 2016-May-26 12:38 UTC.
Position N 53°20' E 007°10'.

Length 154.5 m; beam 27.6 m.

Type: Cargo ship. MMSI: 353633000.

Date/timePositionNaut miles runAvg speedWind from/ knotsBaromVisibWave heightAir tempDewpointWater temp
2016-May-26 12:34N 53°20' E 007°10'0 0.0
2016-May-26 11:34N 53°20' E 007°10'0 0.0
2016-May-26 10:33N 53°20' E 007°10'0 0.0
2016-May-26 09:34N 53°20' E 007°10'0 0.0
2016-May-26 08:34N 53°20' E 007°10'0 0.0
2016-May-26 07:34N 53°20' E 007°10'0 0.0
2016-May-26 06:33N 53°20' E 007°10'0 0.0
2016-May-26 05:34N 53°20' E 007°10'0 0.0
2016-May-26 04:34N 53°20' E 007°10'0 0.0
2016-May-26 03:31N 53°20' E 007°10'0 0.0
2016-May-26 02:33N 53°20' E 007°10'0 0.0
2016-May-26 01:34N 53°20' E 007°10'0 0.0
2016-May-26 00:34N 53°20' E 007°10'0 0.0
2016-May-25 23:34N 53°20' E 007°10'0 0.0
2016-May-25 22:33N 53°20' E 007°10'0 0.0
2016-May-25 21:33N 53°20' E 007°10'0 0.0
2016-May-25 20:31N 53°20' E 007°10'0 0.0
2016-May-25 19:33N 53°20' E 007°10'0 0.0
2016-May-25 18:34N 53°20' E 007°10'1 1.1
2016-May-25 17:33N 53°20' E 007°08'5 5.0
2016-May-25 16:33N 53°20' E 007°00'1111.3
2016-May-25 15:33N 53°29' E 006°50'1312.5
2016-May-25 14:33N 53°37' E 006°33'1211.7
2016-May-25 13:33N 53°38' E 006°13'1111.4
2016-May-25 12:34N 53°39' E 005°54'1515.5
2016-May-25 11:34N 53°35' E 005°29'1615.7
2016-May-25 10:34N 53°30' E 005°04'1715.3
2016-May-25 09:25N 53°20' E 004°40'1516.1
2016-May-25 08:30N 53°07' E 004°28'1516.4
2016-May-25 07:34N 52°53' E 004°16'1616.2
2016-May-25 06:33N 52°41' E 003°59'1615.7
2016-May-25 05:33N 52°29' E 003°40'7414.9
2016-May-25 00:33N 51°42' E 002°07'1413.7
2016-May-24 23:33N 51°35' E 001°49'1313.1
2016-May-24 22:33N 51°27' E 001°32'9 9.0
2016-May-24 21:33N 51°29' E 001°18'1313.4
2016-May-24 20:33N 51°29' E 000°56'254 5.7
2016-May-23 00:07N 53°20' E 007°11'0 0.0
2016-May-22 23:32N 53°20' E 007°11'5 5.2
2016-May-22 22:33N 53°19' E 007°02'1111.1
2016-May-22 21:33N 53°28' E 006°51'1212.1
2016-May-22 20:33N 53°36' E 006°35'1010.5
2016-May-22 19:33N 53°38' E 006°18'1110.8
2016-May-22 18:33N 53°37' E 005°60'1716.8
2016-May-22 17:34N 53°34' E 005°32'1716.7
2016-May-22 16:34N 53°29' E 005°05'1616.3
2016-May-22 15:33N 53°25' E 004°38'9215.3
2016-May-22 09:31N 53°33' E 002°04'1616.2
2016-May-22 08:33N 53°33' E 001°37'1716.5
2016-May-22 07:31N 53°34' E 001°09'1715.9
2016-May-22 06:27N 53°32' E 000°40'1416.0
2016-May-22 05:33N 53°32' E 000°16'10 9.7
2016-May-22 04:33N 53°35' E 000°01'3 2.7
2016-May-22 03:32N 53°35' W 000°04'0 0.0
2016-May-22 02:32N 53°35' W 000°04'0 0.0
2016-May-22 01:32N 53°35' W 000°04'0 0.0
2016-May-22 00:32N 53°35' W 000°04'0 0.0
2016-May-21 23:32N 53°35' W 000°04'0 0.0
2016-May-21 22:32N 53°35' W 000°04'0 0.0
2016-May-21 21:31N 53°35' W 000°04'0 0.0
2016-May-21 20:32N 53°35' W 000°04'0 0.0
2016-May-21 19:32N 53°35' W 000°04'0 0.0
2016-May-21 18:31N 53°35' W 000°04'0 0.0
2016-May-21 17:33N 53°35' W 000°04'4 3.8
2016-May-21 16:34N 53°35' E 000°02'10 9.5
2016-May-21 15:33N 53°33' E 000°18'10 9.2
2016-May-21 14:31N 53°34' E 000°34'4 3.6
2016-May-21 13:29N 53°33' E 000°40'3 2.4
2016-May-21 12:23N 53°31' E 000°40'2 2.4
2016-May-21 11:33N 53°29' E 000°38'4 4.2
2016-May-21 10:33N 53°33' E 000°40'2 1.4
2016-May-21 09:17N 53°32' E 000°39'3 2.7
2016-May-21 08:16N 53°29' E 000°36'1 1.1
2016-May-21 07:32N 53°29' E 000°37'12914.4
2016-May-20 22:33N 53°28' E 004°14'1514.6
2016-May-20 21:33N 53°29' E 004°38'1514.6
2016-May-20 20:33N 53°35' E 005°01'1413.7
2016-May-20 19:33N 53°39' E 005°23'1313.0
2016-May-20 18:33N 53°43' E 005°44'1313.3
2016-May-20 17:33N 53°46' E 006°06'10 9.9
2016-May-20 16:33N 53°40' E 006°20'1111.5
2016-May-20 15:33N 53°35' E 006°37'1616.0
2016-May-20 14:33N 53°24' E 006°57'10 9.6
2016-May-20 13:34N 53°20' E 007°11'0 0.5
2016-May-20 12:32N 53°21' E 007°12'0 0.0
2016-May-20 11:32N 53°21' E 007°12'0 0.0
2016-May-20 10:32N 53°21' E 007°12'0 0.0
2016-May-20 09:32N 53°21' E 007°12'0 0.0
2016-May-20 08:32N 53°21' E 007°12'0 0.0
2016-May-20 07:32N 53°21' E 007°12'0 0.0
2016-May-20 06:29N 53°21' E 007°12'0 0.0
2016-May-20 05:32N 53°21' E 007°12'0 0.0
2016-May-20 04:32N 53°21' E 007°12'0 0.0
2016-May-20 03:32N 53°21' E 007°12'0 0.0
2016-May-20 02:32N 53°21' E 007°12'0 0.0
2016-May-20 01:32N 53°21' E 007°12'0 0.0
2016-May-20 00:32N 53°21' E 007°12'0 0.0
2016-May-19 23:32N 53°21' E 007°12'0 0.0
2016-May-19 22:32N 53°21' E 007°12'0 0.0
2016-May-19 21:32N 53°21' E 007°12'0 0.0
2016-May-19 20:32N 53°21' E 007°12'0 0.0
2016-May-19 19:32N 53°21' E 007°12'0 0.0
2016-May-19 18:34N 53°21' E 007°12'0 0.5
2016-May-19 17:34N 53°20' E 007°11'6 6.1
2016-May-19 16:34N 53°19' E 007°01'1414.2
2016-May-19 15:34N 53°31' E 006°47'1414.3
2016-May-19 14:34N 53°37' E 006°25'1010.3
2016-May-19 13:33N 53°37' E 006°08'1515.4
2016-May-19 12:34N 53°35' E 005°42'1514.6
2016-May-19 11:34N 53°32' E 005°18'1514.5
2016-May-19 10:34N 53°27' E 004°55'1413.5
2016-May-19 09:31N 53°17' E 004°38'1414.6
2016-May-19 08:34N 53°05' E 004°27'1514.7
2016-May-19 07:34N 52°52' E 004°15'1514.6
2016-May-19 06:34N 52°41' E 003°59'1514.9
2016-May-19 05:31N 52°29' E 003°42'2215.6
2016-May-19 04:05N 52°14' E 003°15'4516.1
2016-May-19 01:15N 51°47' E 002°16'1217.1
2016-May-19 00:34N 51°40' E 001°60'1716.9
2016-May-18 23:34N 51°30' E 001°37'1111.3
2016-May-18 22:34N 51°29' E 001°19'1414.4
2016-May-18 21:34N 51°29' E 000°56'8 7.7
2016-May-18 20:33N 51°26' E 000°44'0 0.0
2016-May-18 19:33N 51°26' E 000°44'0 0.0
2016-May-18 18:33N 51°26' E 000°44'0 0.0
2016-May-18 16:24N 51°26' E 000°44'0 0.0
2016-May-18 15:30N 51°26' E 000°44'0 0.0
2016-May-18 14:12N 51°26' E 000°44'0 0.0
2016-May-18 13:18N 51°26' E 000°44'0 0.1
2016-May-18 12:33N 51°26' E 000°44'4 3.9
2016-May-18 11:33N 51°28' E 000°50'5 4.9
2016-May-18 10:33N 51°29' E 000°57'9 8.8
2016-May-18 09:33N 51°29' E 001°12'1111.3
2016-May-18 08:33N 51°25' E 001°28'1 0.6
2016-May-18 07:33N 51°25' E 001°28'0 0.0
2016-May-18 06:33N 51°25' E 001°28'0 0.0
2016-May-18 05:33N 51°25' E 001°28'0 0.0
2016-May-18 04:33N 51°25' E 001°28'0 0.0
2016-May-18 03:33N 51°25' E 001°28'0 0.0
2016-May-18 02:33N 51°25' E 001°28'0 0.0
2016-May-18 01:33N 51°25' E 001°28'0 0.0
2016-May-18 00:33N 51°25' E 001°28'0 0.0
2016-May-17 23:33N 51°25' E 001°28'0 0.0
2016-May-17 22:33N 51°25' E 001°28'0 0.0
2016-May-17 21:33N 51°25' E 001°28'0 0.1
2016-May-17 20:33N 51°25' E 001°28'0 0.0
2016-May-17 19:33N 51°25' E 001°28'0 0.0
2016-May-17 18:33N 51°25' E 001°28'0 0.0
2016-May-17 17:33N 51°25' E 001°28'0 0.1
2016-May-17 16:33N 51°25' E 001°28'0 0.0
2016-May-17 15:33N 51°25' E 001°28'0 0.1
2016-May-17 14:33N 51°25' E 001°28'0 0.0
2016-May-17 13:33N 51°25' E 001°28'0 0.0
2016-May-17 12:33N 51°25' E 001°28'0 0.0
2016-May-17 11:33N 51°25' E 001°28'0 0.0
2016-May-17 10:33N 51°25' E 001°28'6 6.3
2016-May-17 09:33N 51°29' E 001°36'1414.5
2016-May-17 08:34N 51°34' E 001°57'1515.0
2016-May-17 07:34N 51°42' E 002°17'1616.0
2016-May-17 06:33N 51°54' E 002°36'3616.1
2016-May-17 04:19N 52°22' E 003°12'4114.8
2016-May-17 01:34N 52°55' E 003°53'5714.2
2016-May-16 21:33N 53°34' E 005°02'1615.5
2016-May-16 20:34N 53°39' E 005°27'1515.2
2016-May-16 19:33N 53°43' E 005°52'1414.4
2016-May-16 18:34N 53°47' E 006°15'1111.4
2016-May-16 17:33N 53°37' E 006°23'1212.1
2016-May-16 16:33N 53°33' E 006°42'1212.2
2016-May-16 15:33N 53°24' E 006°57'8 8.2
2016-May-16 14:33N 53°20' E 007°09'2 1.9
2016-May-16 13:32N 53°21' E 007°12'  

Dump ship's entire track history